Cenky — TCZV7 — position and weather

sailwx.info

Track history (hours):
 
Tides and Currents Weather Stations Pressure Air Temp Water Temp Dewpoint Dewpoint Depression Visibility Wind Speed Wind Dir Waves Ship Positions

Cenky

Last reported at 2016-Jun-27 13:31 UTC. Time now 2016-Jul-01 20:50 UTC.
Position N 35°16' E 034°53'.

Length 150 m; draft 5.2 m.

Type: Ship. MMSI: 271042575.

Date/timePositionNaut miles runAvg speedWind from/ knotsBaromVisibWave heightAir tempDewpointWater temp
2016-Jun-27 13:31N 35°16' E 034°53'44 0.9
2016-Jun-25 11:33N 34°38' E 034°26'7 7.4
2016-Jun-25 10:34N 34°32' E 034°21'1612.1
2016-Jun-25 09:13N 34°19' E 034°10'812.2
2016-Jun-25 08:33N 34°12' E 034°04'2411.7
2016-Jun-25 06:33N 33°52' E 033°49'2610.8
2016-Jun-25 04:09N 33°32' E 033°29'711.1
2016-Jun-25 03:33N 33°29' E 033°23'1111.0
2016-Jun-25 02:33N 33°22' E 033°12'1111.1
2016-Jun-25 01:33N 33°12' E 033°07'1211.5
2016-Jun-25 00:33N 33°01' E 033°02'1211.6
2016-Jun-24 23:28N 32°50' E 032°57'1111.7
2016-Jun-24 22:32N 32°39' E 032°52'1111.6
2016-Jun-24 21:33N 32°29' E 032°48'2811.3
2016-Jun-24 19:05N 32°03' E 032°36'811.2
2016-Jun-24 18:24N 31°56' E 032°32'1011.0
2016-Jun-24 17:27N 31°46' E 032°28'1110.9
2016-Jun-24 16:25N 31°35' E 032°24'1310.8
2016-Jun-24 15:15N 31°23' E 032°23'  
2016-Jun-20 05:24N 31°06' E 032°18'16 2.2
2016-Jun-19 22:14N 31°21' E 032°20'0 0.0
2016-Jun-19 16:06N 31°21' E 032°20'30 6.5
2016-Jun-19 11:29N 31°48' E 032°37'1112.3
2016-Jun-19 10:33N 31°58' E 032°43'3812.6
2016-Jun-19 07:33N 32°31' E 033°04'2512.6
2016-Jun-19 05:32N 32°54' E 033°19'1212.4
2016-Jun-19 04:33N 33°04' E 033°26'6412.6
2016-Jun-18 23:30N 34°01' E 034°01'5911.8
2016-Jun-18 18:33N 34°52' E 034°36'2612.4
2016-Jun-18 16:28N 35°14' E 034°51'40 9.4
2016-Jun-18 12:13N 35°50' E 035°15'811.5
2016-Jun-18 11:33N 35°56' E 035°20'  
Track history (hours):
 
Tides and Currents Weather Stations Pressure Air Temp Water Temp Dewpoint Dewpoint Depression Visibility Wind Speed Wind Dir Waves Ship Positions

Cenky

Last reported at 2016-Jun-27 13:31 UTC. Time now 2016-Jul-01 20:50 UTC.
Position N 35°16' E 034°53'.

Length 150 m; draft 5.2 m.

Type: Ship. MMSI: 271042575.

Date/timePositionNaut miles runAvg speedWind from/ knotsBaromVisibWave heightAir tempDewpointWater temp
2016-Jun-27 13:31N 35°16' E 034°53'44 0.9
2016-Jun-25 11:33N 34°38' E 034°26'7 7.4
2016-Jun-25 10:34N 34°32' E 034°21'1612.1
2016-Jun-25 09:13N 34°19' E 034°10'812.2
2016-Jun-25 08:33N 34°12' E 034°04'2411.7
2016-Jun-25 06:33N 33°52' E 033°49'2610.8
2016-Jun-25 04:09N 33°32' E 033°29'711.1
2016-Jun-25 03:33N 33°29' E 033°23'1111.0
2016-Jun-25 02:33N 33°22' E 033°12'1111.1
2016-Jun-25 01:33N 33°12' E 033°07'1211.5
2016-Jun-25 00:33N 33°01' E 033°02'1211.6
2016-Jun-24 23:28N 32°50' E 032°57'1111.7
2016-Jun-24 22:32N 32°39' E 032°52'1111.6
2016-Jun-24 21:33N 32°29' E 032°48'2811.3
2016-Jun-24 19:05N 32°03' E 032°36'811.2
2016-Jun-24 18:24N 31°56' E 032°32'1011.0
2016-Jun-24 17:27N 31°46' E 032°28'1110.9
2016-Jun-24 16:25N 31°35' E 032°24'1310.8
2016-Jun-24 15:15N 31°23' E 032°23'  
2016-Jun-20 05:24N 31°06' E 032°18'16 2.2
2016-Jun-19 22:14N 31°21' E 032°20'0 0.0
2016-Jun-19 16:06N 31°21' E 032°20'30 6.5
2016-Jun-19 11:29N 31°48' E 032°37'1112.3
2016-Jun-19 10:33N 31°58' E 032°43'3812.6
2016-Jun-19 07:33N 32°31' E 033°04'2512.6
2016-Jun-19 05:32N 32°54' E 033°19'1212.4
2016-Jun-19 04:33N 33°04' E 033°26'6412.6
2016-Jun-18 23:30N 34°01' E 034°01'5911.8
2016-Jun-18 18:33N 34°52' E 034°36'2612.4
2016-Jun-18 16:28N 35°14' E 034°51'40 9.4
2016-Jun-18 12:13N 35°50' E 035°15'811.5
2016-Jun-18 11:33N 35°56' E 035°20'  

Dump ship's entire track history